Terminal Aerodrome Forecast
Issued by NWS Jackson, MS

Home | Current Version | Previous Version | Text Only | Print | Product List | Glossary On
Versions: 1 2 3 4 5 6 7 8 9 10 11 12
000
FTUS44 KMEG 050532
TAFTUP
TAF
KTUP 050532Z 0506/0606 00000KT P6SM SCT250
     FM051400 23004KT P6SM SCT120 BKN250
     FM052100 23006KT P6SM VCTS BKN060CB OVC120
     FM060200 VRB02KT P6SM VCSH SCT060 BKN120=

USA.gov is the U.S. government's official web portal to all federal, state and local government web resources and services.